Time;durP1;ratioP1;P1;durP2;ratioP2;P2;SDS_P1;SDS_P2;PMS_P1;PMS_P2;Temp;Humidity;BMP_temperature;BMP_pressure;BME280_temperature;BME280_humidity;BME280_pressure;Samples;Min_cycle;Max_cycle;Signal;HPM_P1;HPM_P2
2022/05/05 00:02:12;;;;;;;1.60;1.00;;;;;;;5.88;46.03;100180.79;109530;1272;23264;-64
2022/05/05 00:04:40;;;;;;;2.90;1.50;;;;;;;5.86;45.73;100184.02;109416;1273;137941;-64
2022/05/05 00:07:08;;;;;;;2.30;1.30;;;;;;;5.82;46.05;100182.90;109502;1272;22397;-64
2022/05/05 00:09:37;;;;;;;2.90;1.80;;;;;;;5.79;46.26;100186.69;109364;1272;137312;-64
2022/05/05 00:14:52;;;;;;;2.40;1.20;;;;;;;5.76;46.05;100191.66;109452;1274;23229;-63
2022/05/05 00:17:20;;;;;;;2.30;1.40;;;;;;;5.75;45.70;100193.08;109436;1272;138328;-64
2022/05/05 00:19:48;;;;;;;3.60;1.40;;;;;;;5.75;46.11;100198.44;109496;1272;22898;-64
2022/05/05 00:22:16;;;;;;;3.00;1.30;;;;;;;5.75;46.21;100201.27;109335;1273;137009;-64
2022/05/05 00:24:44;;;;;;;2.50;1.30;;;;;;;5.73;45.87;100201.48;109488;1274;22986;-63
2022/05/05 00:27:12;;;;;;;4.60;1.10;;;;;;;5.73;45.84;100212.80;109364;1272;139463;-63
2022/05/05 00:29:40;;;;;;;3.50;1.40;;;;;;;5.72;45.84;100214.91;109500;1273;22502;-63
2022/05/05 00:32:08;;;;;;;3.10;1.60;;;;;;;5.69;45.93;100216.70;109543;1273;22482;-63
2022/05/05 00:34:38;;;;;;;2.60;1.70;;;;;;;5.70;46.09;100219.89;109390;1273;137185;-63
2022/05/05 00:37:06;;;;;;;1.70;1.20;;;;;;;5.69;45.87;100218.94;109511;1272;22451;-63
2022/05/05 00:39:34;;;;;;;3.50;1.70;;;;;;;5.66;45.89;100217.31;109404;1272;137438;-63
2022/05/05 00:42:03;;;;;;;3.00;1.40;;;;;;;5.65;45.96;100219.60;109510;1273;22465;-64
2022/05/05 00:44:31;;;;;;;3.90;1.30;;;;;;;5.65;46.24;100222.21;109230;1274;22440;-63
2022/05/05 00:46:59;;;;;;;3.40;1.40;;;;;;;5.64;46.20;100220.10;109419;1274;138267;-62
2022/05/05 00:49:29;;;;;;;4.60;1.10;;;;;;;5.64;46.22;100219.05;109544;1273;22429;-63
2022/05/05 00:51:58;;;;;;;2.70;1.30;;;;;;;5.63;46.18;100222.92;109223;1272;137086;-63
2022/05/05 00:54:26;;;;;;;2.90;1.40;;;;;;;5.62;46.26;100222.98;109460;1274;23251;-63
2022/05/05 00:56:54;;;;;;;2.80;1.20;;;;;;;5.61;46.26;100221.70;109544;1272;22437;-63
2022/05/05 00:59:22;;;;;;;3.20;1.40;;;;;;;5.58;46.48;100226.20;109436;1272;136976;-63
2022/05/05 01:01:50;;;;;;;2.60;1.40;;;;;;;5.56;46.31;100229.92;109296;1274;22439;-63
2022/05/05 01:04:19;;;;;;;2.20;1.20;;;;;;;5.55;46.36;100236.54;109312;1273;138025;-63
2022/05/05 01:06:47;;;;;;;3.80;1.40;;;;;;;5.55;46.50;100235.91;109393;1272;22462;-63
2022/05/05 01:09:15;;;;;;;2.70;1.20;;;;;;;5.53;46.86;100232.55;109314;1274;137267;-63
2022/05/05 01:11:44;;;;;;;2.90;1.40;;;;;;;5.52;46.78;100235.73;109519;1272;23161;-63
2022/05/05 01:14:16;;;;;;;2.80;1.40;;;;;;;5.49;46.70;100239.11;109486;1272;22432;-63
2022/05/05 01:16:44;;;;;;;5.20;1.40;;;;;;;5.48;46.62;100240.95;106485;1273;137672;-64
2022/05/05 01:19:12;;;;;;;3.70;1.40;;;;;;;5.46;46.67;100241.91;109393;1273;23243;-63
2022/05/05 01:21:40;;;;;;;2.20;1.20;;;;;;;5.46;46.87;100245.11;109375;1274;138195;-63
2022/05/05 01:24:08;;;;;;;2.30;1.30;;;;;;;5.45;47.05;100245.48;109556;1274;23557;-63
2022/05/05 01:29:23;;;;;;;3.70;1.10;;;;;;;5.40;46.94;100250.05;109347;1274;136101;-66
2022/05/05 01:31:51;;;;;;;4.10;1.70;;;;;;;5.39;46.90;100249.04;109475;1273;22469;-66
2022/05/05 01:34:19;;;;;;;4.00;1.70;;;;;;;5.37;46.89;100256.27;109318;1274;138905;-66
2022/05/05 01:36:47;;;;;;;2.50;1.40;;;;;;;5.34;47.08;100254.65;109491;1273;22424;-65
2022/05/05 01:39:15;;;;;;;2.20;1.30;;;;;;;5.32;47.20;100257.16;109412;1272;137855;-65
2022/05/05 01:41:44;;;;;;;4.60;1.40;;;;;;;5.29;47.10;100256.23;109529;1273;22445;-66
2022/05/05 01:44:12;;;;;;;2.90;1.30;;;;;;;5.26;47.28;100257.02;109397;1273;22237;-63
2022/05/05 01:46:41;;;;;;;3.40;1.30;;;;;;;5.25;47.48;100259.80;109459;1273;138355;-63
2022/05/05 01:49:10;;;;;;;3.30;1.90;;;;;;;5.24;47.81;100260.33;109381;1274;22440;-63
2022/05/05 01:51:39;;;;;;;4.40;1.50;;;;;;;5.23;47.69;100259.70;109253;1274;137311;-63
2022/05/05 01:54:07;;;;;;;2.60;1.10;;;;;;;5.21;47.84;100257.86;109510;1273;23350;-63
2022/05/05 01:56:35;;;;;;;3.20;1.30;;;;;;;5.17;47.57;100259.55;109373;1274;22320;-63
2022/05/05 01:59:03;;;;;;;3.30;1.40;;;;;;;5.14;48.07;100265.34;109346;1274;138829;-63
2022/05/05 02:01:33;;;;;;;2.20;1.30;;;;;;;5.10;48.28;100264.83;109546;1273;23731;-63
2022/05/05 02:04:01;;;;;;;3.80;1.70;;;;;;;5.10;48.15;100270.30;109391;1274;138170;-63
2022/05/05 02:06:29;;;;;;;3.40;1.40;;;;;;;5.08;48.25;100272.92;109518;1272;23235;-63
2022/05/05 02:08:58;;;;;;;2.60;1.30;;;;;;;5.06;48.42;100275.20;109509;1272;23285;-63
2022/05/05 02:11:26;;;;;;;2.10;1.30;;;;;;;5.03;48.60;100275.63;109396;1274;137260;-63
2022/05/05 02:13:54;;;;;;;2.80;1.50;;;;;;;5.00;48.37;100281.80;109519;1273;22455;-63
2022/05/05 02:16:22;;;;;;;4.20;1.40;;;;;;;4.98;48.55;100282.00;109435;1273;137876;-63
2022/05/05 02:18:50;;;;;;;3.40;1.30;;;;;;;4.97;48.56;100281.66;109545;1273;22432;-64
2022/05/05 02:21:18;;;;;;;4.10;1.90;;;;;;;4.97;48.66;100287.33;109406;1273;137272;-64
2022/05/05 02:23:46;;;;;;;4.90;1.80;;;;;;;4.95;48.78;100288.59;109522;1273;22505;-63
2022/05/05 02:26:14;;;;;;;3.30;1.70;;;;;;;4.92;48.82;100286.29;109509;1273;22440;-63
2022/05/05 02:28:42;;;;;;;7.50;2.30;;;;;;;4.88;49.25;100292.70;109420;1272;137040;-63
2022/05/05 02:31:10;;;;;;;8.00;2.30;;;;;;;4.85;49.12;100296.20;109510;1274;23201;-63
2022/05/05 02:33:40;;;;;;;2.40;1.50;;;;;;;4.81;49.45;100303.91;109409;1272;137990;-63
2022/05/05 02:38:55;;;;;;;5.70;2.10;;;;;;;4.79;49.48;100305.98;109382;1274;23215;-63
2022/05/05 02:41:23;;;;;;;3.10;1.60;;;;;;;4.78;49.45;100307.71;109436;1272;137339;-63
2022/05/05 02:43:51;;;;;;;5.20;1.60;;;;;;;4.76;49.35;100309.62;109505;1272;22478;-63
2022/05/05 02:46:19;;;;;;;3.50;1.60;;;;;;;4.74;49.86;100308.83;107255;1273;137680;-63
2022/05/05 02:48:47;;;;;;;4.80;1.50;;;;;;;4.72;49.91;100310.86;109511;1274;23242;-63
2022/05/05 02:51:17;;;;;;;5.20;1.60;;;;;;;4.71;49.80;100315.70;109377;1273;139735;-63
2022/05/05 02:56:32;;;;;;;4.90;2.90;;;;;;;4.67;50.19;100321.25;109520;1273;22449;-64
2022/05/05 02:59:00;;;;;;;3.30;1.90;;;;;;;4.65;50.41;100320.95;109448;1273;137611;-63
2022/05/05 03:01:28;;;;;;;3.90;1.90;;;;;;;4.66;50.31;100326.80;109518;1272;22409;-63
2022/05/05 03:03:56;;;;;;;3.70;1.60;;;;;;;4.65;50.39;100331.56;109379;1273;137799;-63
2022/05/05 03:06:25;;;;;;;3.20;1.80;;;;;;;4.67;50.33;100327.55;109497;1272;22450;-63
2022/05/05 03:08:53;;;;;;;5.40;1.90;;;;;;;4.70;50.50;100330.03;109517;1273;23432;-64
2022/05/05 03:11:21;;;;;;;4.00;2.10;;;;;;;4.73;50.44;100329.67;109322;1272;137495;-63
2022/05/05 03:13:48;;;;;;;2.20;1.40;;;;;;;4.73;50.38;100331.42;109531;1272;22239;-63
2022/05/05 03:16:16;;;;;;;4.10;2.10;;;;;;;4.77;50.54;100334.48;109388;1273;137600;-64
2022/05/05 03:18:45;;;;;;;4.80;3.00;;;;;;;4.80;50.33;100335.22;109486;1274;23237;-63
2022/05/05 03:21:13;;;;;;;3.40;1.60;;;;;;;4.82;50.27;100338.72;109261;1274;137883;-63
2022/05/05 03:23:42;;;;;;;4.90;1.70;;;;;;;4.84;50.28;100343.67;109422;1273;23355;-64
2022/05/05 03:26:10;;;;;;;3.40;1.80;;;;;;;4.87;50.36;100345.07;109512;1272;22441;-63
2022/05/05 03:28:38;;;;;;;4.30;1.60;;;;;;;4.90;50.49;100347.66;109328;1274;137339;-63
2022/05/05 03:31:06;;;;;;;5.20;2.00;;;;;;;4.95;50.44;100349.08;109498;1273;22538;-63
2022/05/05 03:33:36;;;;;;;3.50;2.00;;;;;;;5.00;50.55;100352.90;109437;1273;137247;-63
2022/05/05 03:36:04;;;;;;;4.30;1.80;;;;;;;5.06;50.25;100355.58;109486;1273;22275;-64
2022/05/05 03:38:33;;;;;;;3.80;2.00;;;;;;;5.13;50.05;100362.16;108812;1273;24276;-63
2022/05/05 03:41:01;;;;;;;4.50;1.90;;;;;;;5.19;50.20;100362.61;104907;1274;137658;-63
2022/05/05 03:43:29;;;;;;;3.70;1.50;;;;;;;5.26;50.20;100368.11;105045;1274;24257;-63
2022/05/05 03:45:57;;;;;;;2.90;1.80;;;;;;;5.34;49.79;100373.71;104975;1274;137032;-63
2022/05/05 03:48:27;;;;;;;4.80;1.90;;;;;;;5.43;49.32;100374.45;105027;1274;25296;-62
2022/05/05 03:50:55;;;;;;;3.40;1.60;;;;;;;5.47;49.46;100373.98;105060;1274;22566;-63
2022/05/05 03:53:23;;;;;;;2.40;1.60;;;;;;;5.55;49.28;100378.75;109334;1273;137238;-63
2022/05/05 03:55:51;;;;;;;3.70;1.90;;;;;;;5.61;49.75;100381.35;109522;1273;22984;-63
2022/05/05 03:58:19;;;;;;;3.70;2.00;;;;;;;5.67;49.40;100383.61;109401;1274;137217;-64
2022/05/05 04:00:47;;;;;;;6.80;1.90;;;;;;;5.74;49.40;100384.88;109541;1273;22417;-64
2022/05/05 04:03:33;;;;;;;3.70;2.00;;;;;;;5.83;48.90;100391.13;109322;1274;137281;-64
2022/05/05 04:06:05;;;;;;;4.00;1.60;;;;;;;5.92;48.26;100389.95;109502;1274;22441;-64
2022/05/05 04:08:34;;;;;;;2.60;1.40;;;;;;;6.00;48.35;100391.26;109509;1274;22427;-64
2022/05/05 04:11:04;;;;;;;3.30;1.70;;;;;;;6.06;48.07;100393.46;109407;1273;137894;-64
2022/05/05 04:13:32;;;;;;;2.80;1.60;;;;;;;6.13;47.90;100395.97;109370;1274;23119;-64
2022/05/05 04:16:05;;;;;;;5.50;2.00;;;;;;;6.18;47.81;100398.39;109401;1274;137272;-64
2022/05/05 04:18:35;;;;;;;2.70;1.60;;;;;;;6.23;47.57;100395.30;109534;1273;22407;-64
2022/05/05 04:21:03;;;;;;;3.00;1.80;;;;;;;6.29;47.72;100394.17;109363;1273;137624;-63
2022/05/05 04:23:31;;;;;;;2.50;1.70;;;;;;;6.33;47.74;100395.51;109474;1273;23410;-64
2022/05/05 04:26:09;;;;;;;6.20;1.90;;;;;;;6.41;47.66;100397.84;109538;1273;23406;-64
2022/05/05 04:28:40;;;;;;;4.00;1.80;;;;;;;6.48;47.33;100398.13;109338;1274;137087;-64
2022/05/05 04:31:15;;;;;;;3.20;2.00;;;;;;;6.55;47.12;100396.70;109506;1274;22283;-64
2022/05/05 04:33:44;;;;;;;3.50;1.90;;;;;;;6.61;47.52;100397.70;109318;1274;137366;-65
2022/05/05 04:36:12;;;;;;;4.90;1.80;;;;;;;6.65;47.14;100398.88;109488;1272;23314;-65
2022/05/05 04:38:41;;;;;;;4.20;1.70;;;;;;;6.72;46.72;100398.75;109491;1273;22538;-64
2022/05/05 04:41:10;;;;;;;8.30;2.40;;;;;;;6.82;46.84;100400.46;109374;1272;139073;-64
2022/05/05 04:43:38;;;;;;;3.00;1.90;;;;;;;6.90;46.77;100396.59;109423;1274;22414;-64
2022/05/05 04:46:06;;;;;;;4.00;2.00;;;;;;;6.98;46.56;100395.35;107592;1273;138454;-64
2022/05/05 04:48:34;;;;;;;5.20;1.90;;;;;;;7.09;46.61;100400.81;104916;1274;22582;-64
2022/05/05 04:51:02;;;;;;;2.70;1.70;;;;;;;7.25;46.49;100409.64;104965;1274;137417;-63
2022/05/05 04:53:31;;;;;;;4.10;2.40;;;;;;;7.46;46.56;100407.53;105059;1274;22568;-63
2022/05/05 04:55:59;;;;;;;5.50;1.60;;;;;;;7.77;45.84;100404.08;105122;1274;22703;-64
2022/05/05 04:58:27;;;;;;;3.70;1.80;;;;;;;8.09;45.92;100408.11;109212;1273;137252;-64
2022/05/05 05:00:54;;;;;;;7.00;2.20;;;;;;;8.44;45.19;100406.47;109490;1273;22416;-65
2022/05/05 05:03:39;;;;;;;3.40;2.30;;;;;;;8.78;43.83;100406.09;109412;1273;138173;-64
2022/05/05 05:06:08;;;;;;;4.40;1.90;;;;;;;9.09;43.50;100407.96;109520;1273;22506;-65
2022/05/05 05:08:38;;;;;;;7.00;2.00;;;;;;;9.37;42.71;100406.48;109522;1273;24639;-65
2022/05/05 05:11:06;;;;;;;4.10;2.10;;;;;;;9.62;42.28;100405.32;109369;1273;137773;-65
2022/05/05 05:13:36;;;;;;;7.60;2.40;;;;;;;9.82;41.40;100409.86;109487;1273;22415;-65
2022/05/05 05:16:05;;;;;;;4.20;2.00;;;;;;;9.99;41.54;100411.63;109423;1274;137587;-64
2022/05/05 05:18:53;;;;;;;6.50;2.00;;;;;;;10.20;40.73;100409.89;109418;1274;24487;-64
2022/05/05 05:21:22;;;;;;;4.50;2.20;;;;;;;10.33;40.23;100407.72;109425;1274;137970;-64
2022/05/05 05:23:50;;;;;;;5.30;1.90;;;;;;;10.52;40.17;100418.39;109495;1273;22424;-64
2022/05/05 05:26:17;;;;;;;4.60;2.00;;;;;;;10.73;40.07;100418.11;109521;1273;22535;-64
2022/05/05 05:28:45;;;;;;;4.90;2.30;;;;;;;10.92;39.47;100420.56;109397;1273;138286;-64
2022/05/05 05:31:16;;;;;;;5.80;2.30;;;;;;;11.12;39.40;100420.52;109548;1273;22478;-64
2022/05/05 05:33:45;;;;;;;5.10;2.30;;;;;;;11.29;38.71;100415.93;109383;1273;137779;-64
2022/05/05 05:36:13;;;;;;;15.80;14.10;;;;;;;11.44;38.56;100416.73;109519;1273;23175;-64
2022/05/05 05:38:41;;;;;;;7.40;2.50;;;;;;;11.59;38.31;100417.84;109460;1273;22502;-64
2022/05/05 05:41:09;;;;;;;5.80;2.70;;;;;;;11.71;37.56;100421.73;109430;1274;137882;-65
2022/05/05 05:43:37;;;;;;;8.60;2.60;;;;;;;11.80;38.03;100419.70;109506;1273;23112;-64
2022/05/05 05:46:05;;;;;;;13.00;7.10;;;;;;;11.92;37.05;100418.73;109326;1274;138675;-64
2022/05/05 05:48:33;;;;;;;6.10;2.20;;;;;;;11.94;37.17;100420.25;109481;1273;22472;-64
2022/05/05 05:53:03;;;;;;;5.30;2.30;;;;;;;11.98;37.21;100422.80;101470;1311;545272;-64
2022/05/05 05:55:31;;;;;;;6.80;2.40;;;;;;;11.94;36.84;100426.97;103713;1289;25282;-64
2022/05/05 05:57:59;;;;;;;5.40;2.00;;;;;;;11.82;36.60;100427.83;107873;1288;136915;-63
2022/05/05 06:00:28;;;;;;;4.20;2.10;;;;;;;11.66;36.56;100427.88;107799;1290;23445;-63
2022/05/05 06:05:45;;;;;;;5.40;2.40;;;;;;;11.31;37.28;100435.11;107813;1286;250196;-64
2022/05/05 06:08:19;;;;;;;7.20;1.90;;;;;;;11.22;37.71;100438.38;108355;1286;23535;-64
2022/05/05 06:10:47;;;;;;;3.60;1.80;;;;;;;11.14;37.94;100436.77;108083;1286;136907;-64
2022/05/05 06:13:15;;;;;;;3.10;1.70;;;;;;;11.07;37.98;100433.17;108407;1284;22395;-64
2022/05/05 06:15:43;;;;;;;6.20;1.80;;;;;;;11.00;38.04;100434.42;107423;1284;138110;-64
2022/05/05 06:18:12;;;;;;;2.40;1.60;;;;;;;10.96;38.30;100436.92;108529;1282;23353;-64
2022/05/05 06:20:40;;;;;;;3.90;1.90;;;;;;;10.94;38.58;100437.52;108661;1283;22468;-64
2022/05/05 06:23:08;;;;;;;5.90;2.20;;;;;;;10.92;38.65;100440.16;108588;1283;137336;-64
2022/05/05 06:25:38;;;;;;;5.90;2.80;;;;;;;10.86;37.59;100434.73;108681;1282;22485;-64
2022/05/05 06:28:06;;;;;;;4.30;1.90;;;;;;;10.81;38.17;100440.48;108490;1282;137311;-64
2022/05/05 06:30:35;;;;;;;3.20;1.80;;;;;;;10.75;38.39;100443.95;108480;1283;22481;-65
2022/05/05 06:33:03;;;;;;;6.30;1.60;;;;;;;10.68;38.08;100446.45;108512;1283;23243;-64
2022/05/05 06:35:31;;;;;;;4.10;1.70;;;;;;;10.59;38.02;100449.30;108406;1284;137316;-64
2022/05/05 06:37:59;;;;;;;2.10;1.30;;;;;;;10.56;38.55;100449.91;108523;1284;22509;-64
2022/05/05 06:40:28;;;;;;;3.30;1.90;;;;;;;10.54;38.56;100455.86;108454;1283;137645;-64
2022/05/05 06:42:56;;;;;;;5.20;1.70;;;;;;;10.51;38.02;100453.50;108571;1283;23670;-64
2022/05/05 06:45:24;;;;;;;3.80;1.80;;;;;;;10.46;37.95;100455.71;108477;1283;138123;-63
2022/05/05 06:47:54;;;;;;;2.90;1.20;;;;;;;10.43;37.64;100455.96;108646;1282;22437;-65
2022/05/05 06:50:23;;;;;;;3.90;1.30;;;;;;;10.38;37.43;100454.71;108563;1283;22506;-65
2022/05/05 06:52:51;;;;;;;2.50;1.50;;;;;;;10.41;37.07;100458.76;108451;1283;138055;-65
2022/05/05 06:55:19;;;;;;;2.10;1.30;;;;;;;10.49;36.96;100460.98;108516;1283;23246;-65
2022/05/05 06:57:48;;;;;;;12.00;1.70;;;;;;;10.57;37.40;100462.73;108445;1282;137590;-63
2022/05/05 07:00:17;;;;;;;5.10;1.30;;;;;;;10.67;37.85;100465.98;108745;1281;23157;-64
2022/05/05 07:02:46;;;;;;;2.00;1.30;;;;;;;10.75;38.12;100464.33;108615;1281;22534;-65
2022/05/05 07:05:34;;;;;;;3.80;1.50;;;;;;;10.81;37.29;100467.96;108376;1283;138701;-64
2022/05/05 07:08:03;;;;;;;3.50;1.60;;;;;;;10.81;36.26;100466.79;108473;1284;22517;-65
2022/05/05 07:13:22;;;;;;;2.80;1.50;;;;;;;10.77;37.16;100470.99;108511;1283;22489;-65
2022/05/05 07:15:50;;;;;;;5.50;1.80;;;;;;;10.79;36.61;100470.77;109075;1276;138198;-64
2022/05/05 07:18:18;;;;;;;3.20;1.50;;;;;;;10.79;36.96;100473.91;109163;1277;23211;-64
2022/05/05 07:20:46;;;;;;;1.50;1.30;;;;;;;10.81;36.63;100478.45;109161;1277;23231;-64
2022/05/05 07:23:14;;;;;;;3.50;1.70;;;;;;;10.82;36.68;100475.58;109157;1274;137109;-64
2022/05/05 07:25:43;;;;;;;4.40;2.20;;;;;;;10.84;36.35;100469.44;109314;1274;22475;-64
2022/05/05 07:28:13;;;;;;;8.00;1.90;;;;;;;10.87;36.57;100472.75;109251;1274;137400;-65
2022/05/05 07:30:41;;;;;;;7.90;1.70;;;;;;;10.88;35.97;100475.91;109394;1274;22495;-64
2022/05/05 07:33:09;;;;;;;4.00;1.60;;;;;;;10.83;35.88;100478.43;109258;1275;22477;-64
2022/05/05 07:35:38;;;;;;;2.80;1.30;;;;;;;10.81;36.80;100481.12;109124;1274;138581;-64
2022/05/05 07:38:07;;;;;;;4.50;1.40;;;;;;;10.85;36.57;100484.52;109240;1274;22244;-64
2022/05/05 07:40:35;;;;;;;3.80;1.80;;;;;;;10.89;36.40;100481.73;109094;1276;138940;-64
2022/05/05 07:43:03;;;;;;;2.10;1.40;;;;;;;10.92;36.94;100478.16;109233;1276;22511;-64
2022/05/05 07:45:31;;;;;;;4.10;1.30;;;;;;;10.95;36.40;100475.08;109135;1277;137422;-63
2022/05/05 07:48:01;;;;;;;5.70;1.80;;;;;;;10.97;36.05;100478.68;109180;1276;22432;-63
2022/05/05 07:50:30;;;;;;;3.50;1.60;;;;;;;10.97;35.93;100479.09;109237;1277;22919;-63
2022/05/05 07:52:58;;;;;;;5.00;1.80;;;;;;;10.97;35.44;100481.20;109057;1274;138173;-64
2022/05/05 07:55:26;;;;;;;1.70;1.20;;;;;;;10.92;35.41;100478.33;109220;1276;22270;-63
2022/05/05 07:57:54;;;;;;;3.40;1.60;;;;;;;10.90;36.22;100480.33;109125;1276;139075;-64
2022/05/05 08:00:23;;;;;;;2.80;1.80;;;;;;;10.93;35.83;100474.80;109215;1276;22421;-64
2022/05/05 08:02:51;;;;;;;3.70;1.60;;;;;;;10.97;35.70;100470.20;109245;1276;22403;-64
2022/05/05 08:05:19;;;;;;;5.30;1.30;;;;;;;11.01;35.98;100469.52;109217;1274;137193;-64
2022/05/05 08:07:49;;;;;;;4.10;2.00;;;;;;;11.08;36.40;100464.33;109249;1274;22685;-64
2022/05/05 08:10:19;;;;;;;3.70;1.40;;;;;;;11.16;35.54;100463.44;109195;1274;137032;-64
2022/05/05 08:12:48;;;;;;;7.00;1.50;;;;;;;11.23;35.71;100469.83;109224;1277;22406;-64
2022/05/05 08:15:16;;;;;;;5.60;1.90;;;;;;;11.23;34.75;100464.42;108876;1277;22625;-64
2022/05/05 08:17:47;;;;;;;4.40;1.50;;;;;;;11.17;34.95;100464.02;104808;1274;137964;-63
2022/05/05 08:20:16;;;;;;;2.90;1.60;;;;;;;11.14;35.28;100466.00;109341;1274;22503;-64
2022/05/05 08:22:45;;;;;;;3.10;1.80;;;;;;;11.12;35.12;100471.62;109161;1274;137707;-65
2022/05/05 08:30:47;;;;;;;5.70;1.90;;;;;;;11.06;35.03;100460.21;109386;1274;22456;-64
2022/05/05 08:33:15;;;;;;;2.30;1.40;;;;;;;11.05;35.61;100463.29;109332;1276;23200;-64
2022/05/05 08:35:44;;;;;;;4.10;1.70;;;;;;;11.11;35.27;100466.20;109143;1276;137933;-64
2022/05/05 08:38:13;;;;;;;3.10;1.60;;;;;;;11.18;35.37;100464.96;109239;1276;22559;-64
2022/05/05 08:40:41;;;;;;;8.30;2.00;;;;;;;11.25;34.86;100459.75;109117;1276;137307;-64
2022/05/05 08:43:10;;;;;;;5.00;2.00;;;;;;;11.28;35.08;100457.75;109246;1276;22443;-64
2022/05/05 08:45:39;;;;;;;3.80;1.80;;;;;;;11.34;34.86;100460.45;109139;1276;138562;-64
2022/05/05 08:48:08;;;;;;;2.20;1.50;;;;;;;11.41;34.93;100460.20;109383;1274;23135;-64
2022/05/05 08:50:37;;;;;;;5.70;1.90;;;;;;;11.47;34.67;100453.90;109397;1274;22459;-64
2022/05/05 08:53:07;;;;;;;4.50;1.80;;;;;;;11.50;34.16;100454.69;109158;1274;137425;-64
2022/05/05 08:55:35;;;;;;;5.10;2.30;;;;;;;11.49;34.01;100451.81;109229;1275;22470;-64
2022/05/05 08:58:04;;;;;;;3.90;1.70;;;;;;;11.46;35.00;100448.14;109122;1275;138393;-64
2022/05/05 09:00:33;;;;;;;3.20;1.70;;;;;;;11.48;35.30;100451.70;109199;1277;22338;-64
2022/05/05 09:03:04;;;;;;;4.70;1.70;;;;;;;11.56;34.78;100448.08;109267;1276;22645;-64
2022/05/05 09:05:42;;;;;;;3.10;1.60;;;;;;;11.60;35.03;100453.52;109146;1276;137378;-64
2022/05/05 09:08:25;;;;;;;2.60;1.40;;;;;;;11.65;35.49;100454.13;109265;1276;22471;-64
2022/05/05 09:10:54;;;;;;;2.70;1.60;;;;;;;11.70;34.30;100453.65;109164;1276;138188;-64
2022/05/05 09:13:23;;;;;;;3.90;1.30;;;;;;;11.68;33.97;100456.30;109281;1276;22508;-64
2022/05/05 09:15:53;;;;;;;5.20;1.80;;;;;;;11.67;34.20;100456.02;109164;1274;138553;-64
2022/05/05 09:18:23;;;;;;;3.80;1.40;;;;;;;11.67;33.66;100451.48;109308;1275;22448;-64
2022/05/05 09:20:51;;;;;;;3.00;1.50;;;;;;;11.66;33.67;100448.90;109381;1274;22281;-64
2022/05/05 09:23:31;;;;;;;6.00;1.70;;;;;;;11.65;33.61;100445.66;109298;1274;137372;-64
2022/05/05 09:26:00;;;;;;;3.10;1.80;;;;;;;11.69;35.21;100448.19;109344;1274;22535;-64
2022/05/05 09:28:32;;;;;;;5.10;1.60;;;;;;;11.80;34.67;100453.19;109239;1274;137642;-64
2022/05/05 09:31:05;;;;;;;6.00;1.80;;;;;;;11.90;33.86;100455.67;109375;1274;23275;-64
2022/05/05 09:33:42;;;;;;;9.40;1.90;;;;;;;11.95;33.19;100453.21;109137;1276;139607;-64
2022/05/05 09:36:14;;;;;;;5.20;1.60;;;;;;;12.00;34.11;100448.96;109290;1276;23196;-64
2022/05/05 09:38:53;;;;;;;3.90;1.50;;;;;;;12.04;33.14;100446.60;109254;1274;22668;-64
2022/05/05 09:41:45;;;;;;;4.20;1.80;;;;;;;12.07;32.79;100444.86;109210;1275;138324;-64
2022/05/05 09:44:20;;;;;;;4.70;1.80;;;;;;;12.00;32.58;100445.27;109287;1274;22459;-64
2022/05/05 09:46:49;;;;;;;3.30;2.00;;;;;;;11.97;32.83;100446.26;106085;1276;137438;-64
2022/05/05 09:49:18;;;;;;;7.70;1.60;;;;;;;12.01;33.49;100445.55;109290;1273;23334;-64
2022/05/05 09:57:43;;;;;;;4.00;1.60;;;;;;;12.19;32.72;100444.34;109076;1276;137936;-64
2022/05/05 10:05:48;;;;;;;4.80;1.70;;;;;;;12.34;33.59;100443.16;109138;1274;139444;-64
2022/05/05 10:08:20;;;;;;;6.70;2.30;;;;;;;12.41;33.08;100443.27;109260;1274;22508;-64
2022/05/05 10:10:49;;;;;;;2.80;1.70;;;;;;;12.45;33.52;100440.76;109050;1276;137957;-64
2022/05/05 10:13:20;;;;;;;5.50;1.80;;;;;;;12.50;33.16;100442.88;109257;1275;23080;-64
2022/05/05 10:15:49;;;;;;;1.90;1.50;;;;;;;12.54;33.67;100440.10;109221;1274;138428;-63
2022/05/05 10:18:28;;;;;;;3.80;1.60;;;;;;;12.63;33.61;100440.35;109369;1274;22442;-63
2022/05/05 10:20:57;;;;;;;7.10;1.70;;;;;;;12.72;32.82;100435.45;109258;1274;22437;-64
2022/05/05 10:23:46;;;;;;;3.00;1.80;;;;;;;12.78;32.83;100435.94;109226;1274;138408;-64
2022/05/05 10:26:14;;;;;;;4.00;2.00;;;;;;;12.81;32.31;100432.61;109290;1274;22561;-64
2022/05/05 10:28:50;;;;;;;2.90;1.70;;;;;;;12.83;32.46;100432.08;109130;1274;139316;-64
2022/05/05 10:31:30;;;;;;;3.80;1.70;;;;;;;12.85;32.09;100436.73;109314;1274;22408;-64
2022/05/05 10:34:08;;;;;;;7.70;2.00;;;;;;;12.88;32.25;100437.30;109149;1274;139603;-64
2022/05/05 10:36:36;;;;;;;5.70;1.80;;;;;;;12.96;32.34;100434.14;109254;1274;22464;-64
2022/05/05 10:39:18;;;;;;;4.10;1.60;;;;;;;13.01;31.24;100428.50;109197;1275;22517;-64
2022/05/05 10:41:46;;;;;;;2.40;1.50;;;;;;;12.97;31.51;100430.93;109115;1274;138444;-64
2022/05/05 10:44:21;;;;;;;3.30;1.60;;;;;;;12.97;31.35;100425.02;109157;1275;22451;-64
2022/05/05 10:47:05;;;;;;;5.60;1.60;;;;;;;12.99;31.19;100421.75;106009;1276;137895;-64
2022/05/05 10:49:41;;;;;;;5.40;1.70;;;;;;;12.97;30.85;100423.63;104807;1276;24007;-64
2022/05/05 10:52:09;;;;;;;4.10;1.40;;;;;;;12.97;31.53;100426.64;109034;1276;137744;-65
2022/05/05 10:54:42;;;;;;;5.60;1.40;;;;;;;12.97;31.10;100426.48;109167;1275;22476;-65
2022/05/05 10:57:24;;;;;;;3.50;1.40;;;;;;;12.99;31.54;100422.73;109222;1275;22408;-65
2022/05/05 11:00:12;;;;;;;2.90;1.30;;;;;;;13.02;31.87;100420.48;109119;1276;137397;-65
2022/05/05 11:03:00;;;;;;;3.30;1.90;;;;;;;13.05;32.01;100419.60;109182;1277;22400;-65
2022/05/05 11:05:38;;;;;;;4.50;2.00;;;;;;;13.12;30.50;100421.00;109216;1274;138427;-65
2022/05/05 11:08:08;;;;;;;4.30;1.60;;;;;;;13.14;30.54;100418.98;109337;1274;22460;-65
2022/05/05 11:11:40;;;;;;;2.50;1.80;;;;;;;13.18;30.57;100422.64;109150;1274;138448;-65
2022/05/05 11:13:43;;;;;;;3.40;1.80;;;;;;;13.21;30.38;100425.21;109155;1275;22463;-65
2022/05/05 11:22:11;;;;;;;4.20;1.50;;;;;;;13.25;30.49;100413.11;104678;1275;137931;-64
2022/05/05 11:24:48;;;;;;;3.00;1.70;;;;;;;13.26;30.13;100404.80;109336;1274;22286;-65
2022/05/05 11:27:18;;;;;;;;;;;;;;;13.29;30.02;100406.86;109275;1274;23370;-65
2022/05/05 11:29:53;;;;;;;2.20;1.20;;;;;;;13.28;30.64;100400.55;109104;1274;125307;-65
2022/05/05 11:32:30;;;;;;;6.40;1.70;;;;;;;13.33;30.41;100404.85;109254;1275;22918;-63
2022/05/05 11:34:58;;;;;;;2.80;1.60;;;;;;;13.38;30.96;100403.27;109082;1275;138007;-63
2022/05/05 11:37:27;;;;;;;1.70;1.40;;;;;;;13.44;30.71;100401.80;109240;1275;22461;-64
2022/05/05 11:39:55;;;;;;;2.70;1.40;;;;;;;13.49;29.91;100393.54;109110;1275;137596;-64
2022/05/05 11:42:23;;;;;;;3.70;2.10;;;;;;;13.51;30.42;100387.71;109245;1274;22416;-64
2022/05/05 11:44:51;;;;;;;2.80;1.50;;;;;;;13.58;30.66;100394.67;109258;1275;23005;-64
2022/05/05 11:47:21;;;;;;;3.10;1.70;;;;;;;13.66;30.70;100400.15;105305;1274;137633;-64
2022/05/05 11:49:52;;;;;;;5.70;1.80;;;;;;;13.74;30.33;100401.21;109425;1274;22229;-64
2022/05/05 11:52:24;;;;;;;5.90;1.90;;;;;;;13.77;29.84;100401.69;109278;1274;137797;-64
2022/05/05 11:54:53;;;;;;;3.00;1.40;;;;;;;13.73;29.92;100394.70;109346;1274;22483;-64
2022/05/05 11:57:33;;;;;;;2.50;1.80;;;;;;;13.71;29.59;100390.45;109326;1274;23480;-64
2022/05/05 12:02:49;;;;;;;3.40;1.90;;;;;;;13.67;29.54;100385.65;109239;1275;23582;-64
2022/05/05 12:05:18;;;;;;;5.10;1.90;;;;;;;13.66;29.37;100383.72;109159;1274;137432;-64
2022/05/05 12:07:46;;;;;;;6.20;1.40;;;;;;;13.64;29.44;100384.02;109222;1274;22782;-64
2022/05/05 12:10:15;;;;;;;2.50;1.40;;;;;;;13.64;29.69;100377.95;109175;1276;138593;-64
2022/05/05 12:12:44;;;;;;;2.90;1.50;;;;;;;13.65;30.08;100372.48;109356;1274;22395;-64
2022/05/05 12:15:16;;;;;;;3.20;1.60;;;;;;;13.71;29.99;100372.59;109334;1274;22480;-64